Airfield :
LOGIN :

Register | Disclaimer

   EN    FR    IT 

 










Legend :    VFR   Marginal VFR   IFR   Intensive IFR   Very Intensive IFR
Visi :
Ceiling :
>= 8 km
>= 3000ft
5 to 8 km
1000 to 3000 ft
1500m to 5 km
500 to 1000 ft
800 to 1500m
200 to 500 ft
< 800m
< 200 ft
Symbols :   Thunderstorms  Fog  Heavy snow  Heavy precipitations  Wind > 20 kt
SIGMETs :     Misc.  Thunderstorms  Icing  Turbulence  Mountain Waves  Volcanic Ashes







- Airport Elevation : 1197 ft
- IATA code : SPM


ETAD - Spangdahlem Ab

CURRENT METAR :
  • 231958Z AUTO 07012KT 9999 CLR 09/04 A3001 RMK AO2 SLP159 T00920035 TSNO $

EXPIRED METARs :
  • 231858Z AUTO 08011KT 9999 SCT140 10/04 A3000 RMK AO2 SLP158 T00970041 TSNO $
  • 231758Z AUTO 09011KT 9999 CLR 11/04 A2998 RMK AO2 SLP151 T01070035 10138 20107 53011 TSNO $

TAF TAF ETAD
Valid from the 23 at 19:00 until the 25 at 01:00 UTC


231900Z 2319/2501 07012KT 9999 SCT100 QNH2996INS
BECMG 2323/2324 06012KT 8000 BR SCT025 BKN100 QNH3010INS
BECMG 2401/2402 07009KT 6000 BR BKN015 QNH3011INS
BECMG 2409/2410 06012G18KT 9999 NSW SCT025 QNH3025INS
BECMG 2414/2415 06012G18KT 9999 FEW030 QNH3026INS
BECMG 2418/2419 06012KT 9999 SCT020 QNH3029INS TX13/2415Z TN02/2406Z
No reported NOTAMs for that airfield.



MET'MAP, your aeronautical weather chart ! - Copyright ORBIFLY December 2007 - Disclaimer

ORBIFLY MET'MAP TEAM :

Programming & Development : Alexandra Zaïnal
Concept & Development : Baudouin d'Aumeries
Co-Development & Prog : Marc-Olivier Méhu
Technical & hardware support : Manuel Goepfert

Contact : metmap@orbifly.com




SOURCES & CREDITS :

   NOAA